createdAt,value
2017-10-26T00:01:31.720Z,19.80
2017-10-26T00:04:02.587Z,19.10
2017-10-26T00:06:31.707Z,19.90
2017-10-26T00:09:00.682Z,18.20
2017-10-26T00:11:31.621Z,20.63
2017-10-26T00:14:00.803Z,18.37
2017-10-26T00:16:29.653Z,20.00
2017-10-26T00:18:59.398Z,19.17
2017-10-26T00:21:29.034Z,18.47
2017-10-26T00:23:58.210Z,18.57
2017-10-26T00:26:27.284Z,20.07
2017-10-26T00:28:56.863Z,18.70
2017-10-26T00:31:26.484Z,20.37
2017-10-26T00:33:56.046Z,19.50
2017-10-26T00:36:25.152Z,20.53
2017-10-26T00:38:54.033Z,20.30
2017-10-26T00:41:23.742Z,19.83
2017-10-26T00:43:52.438Z,20.87
2017-10-26T00:46:21.573Z,21.40
2017-10-26T00:48:50.469Z,23.00
2017-10-26T00:51:19.307Z,23.10
2017-10-26T00:53:48.300Z,24.77
2017-10-26T00:56:18.298Z,26.13
2017-10-26T00:58:47.108Z,27.33
2017-10-26T01:01:16.006Z,27.67
2017-10-26T01:03:44.832Z,30.40
2017-10-26T01:06:14.089Z,29.10
2017-10-26T01:08:43.086Z,28.90
2017-10-26T01:11:13.099Z,29.43
2017-10-26T01:13:41.987Z,31.27
2017-10-26T01:16:10.878Z,32.13
2017-10-26T01:18:39.778Z,29.67
2017-10-26T01:21:08.963Z,30.40
2017-10-26T01:23:37.866Z,30.83
2017-10-26T01:26:07.575Z,29.20
2017-10-26T01:28:36.564Z,29.60
2017-10-26T01:31:05.354Z,28.90
2017-10-26T01:33:35.062Z,26.80
2017-10-26T01:36:03.854Z,26.50
2017-10-26T01:38:33.506Z,24.90
2017-10-26T01:41:02.656Z,24.03
2017-10-26T01:43:31.855Z,23.40
2017-10-26T01:46:00.957Z,22.30
2017-10-26T01:48:30.613Z,22.87
2017-10-26T01:50:59.464Z,21.60
2017-10-26T01:53:28.687Z,20.77
2017-10-26T01:55:57.852Z,22.00
2017-10-26T01:58:26.737Z,20.40
2017-10-26T02:00:56.966Z,20.87
2017-10-26T02:03:29.025Z,20.10
2017-10-26T02:05:57.914Z,18.80
2017-10-26T02:08:27.732Z,18.93
2017-10-26T02:10:56.934Z,19.17
2017-10-26T02:13:26.180Z,18.60
2017-10-26T02:15:55.322Z,19.97
2017-10-26T02:18:25.032Z,18.50
2017-10-26T02:20:54.139Z,19.03
2017-10-26T02:23:23.372Z,19.00
2017-10-26T02:25:52.417Z,20.53
2017-10-26T02:28:21.830Z,17.47
2017-10-26T02:31:02.775Z,17.70
2017-10-26T02:33:31.885Z,18.20
2017-10-26T02:36:01.200Z,17.47
2017-10-26T02:38:30.090Z,18.20
2017-10-26T02:40:59.441Z,18.60
2017-10-26T02:43:28.900Z,17.27
2017-10-26T02:45:58.124Z,19.10
2017-10-26T02:48:27.259Z,18.17
2017-10-26T02:50:56.426Z,17.73
2017-10-26T02:53:26.103Z,19.20
2017-10-26T02:55:54.788Z,18.53
2017-10-26T02:58:23.471Z,17.47
2017-10-26T03:00:52.303Z,18.83
2017-10-26T03:03:21.151Z,18.73
2017-10-26T03:05:50.039Z,17.37
2017-10-26T03:08:18.930Z,18.70
2017-10-26T03:10:47.720Z,17.90
2017-10-26T03:13:16.507Z,18.90
2017-10-26T03:15:45.360Z,18.47
2017-10-26T03:18:14.084Z,19.40
2017-10-26T03:20:42.771Z,18.10
2017-10-26T03:23:11.457Z,16.37
2017-10-26T03:25:40.153Z,18.70
2017-10-26T03:28:08.881Z,17.70
2017-10-26T03:30:37.823Z,17.43
2017-10-26T03:33:06.511Z,18.47
2017-10-26T03:35:35.400Z,17.40
2017-10-26T03:38:04.292Z,17.00
2017-10-26T03:40:32.978Z,19.37
2017-10-26T03:43:01.663Z,17.70
2017-10-26T03:45:30.567Z,18.73
2017-10-26T03:47:59.446Z,18.07
2017-10-26T03:50:28.480Z,16.57
2017-10-26T03:52:57.445Z,16.20
2017-10-26T03:55:26.120Z,17.73
2017-10-26T03:57:54.810Z,18.33
2017-10-26T04:00:23.698Z,16.50
2017-10-26T04:02:53.208Z,16.30
2017-10-26T04:05:22.097Z,18.23
2017-10-26T04:07:51.152Z,16.40
2017-10-26T04:10:19.876Z,16.87
2017-10-26T04:12:48.562Z,17.77
2017-10-26T04:15:17.353Z,17.13
2017-10-26T04:17:46.142Z,16.20
2017-10-26T04:20:14.825Z,17.70
2017-10-26T04:22:43.613Z,16.77
2017-10-26T04:25:12.506Z,17.47
2017-10-26T04:27:41.406Z,16.90
2017-10-26T04:30:10.861Z,30.50
2017-10-26T04:32:39.792Z,17.50
2017-10-26T04:35:08.683Z,17.50
2017-10-26T04:37:37.579Z,17.20
2017-10-26T04:40:06.471Z,18.70
2017-10-26T04:42:35.155Z,17.43
2017-10-26T04:45:04.053Z,20.50
2017-10-26T04:47:32.935Z,17.03
2017-10-26T04:50:01.724Z,17.60
2017-10-26T04:52:30.615Z,16.70
2017-10-26T04:54:59.404Z,17.00
2017-10-26T04:57:28.300Z,18.20
2017-10-26T04:59:57.186Z,18.53
2017-10-26T05:02:25.878Z,17.17
2017-10-26T05:04:54.659Z,17.13
2017-10-26T05:07:23.545Z,18.97
2017-10-26T05:09:52.237Z,19.07
2017-10-26T05:12:20.922Z,18.03
2017-10-26T05:14:49.609Z,15.47
2017-10-26T05:17:18.302Z,14.90
2017-10-26T05:19:46.981Z,19.30
2017-10-26T05:22:15.770Z,16.40
2017-10-26T05:24:44.456Z,15.10
2017-10-26T05:27:13.146Z,14.67
2017-10-26T05:29:42.040Z,15.60
2017-10-26T05:32:11.134Z,14.50
2017-10-26T05:34:40.435Z,15.23
2017-10-26T05:37:09.224Z,16.00
2017-10-26T05:39:38.116Z,15.20
2017-10-26T05:42:07.825Z,17.73
2017-10-26T05:44:36.716Z,16.40
2017-10-26T05:47:05.608Z,18.37
2017-10-26T05:49:34.609Z,18.33
2017-10-26T05:52:03.597Z,16.60
2017-10-26T05:54:32.424Z,17.40
2017-10-26T05:57:01.385Z,17.47
2017-10-26T05:59:31.085Z,16.70
2017-10-26T06:01:59.878Z,18.30
2017-10-26T06:04:28.764Z,17.37
2017-10-26T06:06:57.654Z,17.53
2017-10-26T06:09:26.284Z,17.23
2017-10-26T06:11:55.026Z,17.10
2017-10-26T06:14:23.915Z,18.90
2017-10-26T06:16:52.600Z,20.50
2017-10-26T06:19:21.288Z,19.30
2017-10-26T06:21:49.909Z,20.77
2017-10-26T06:24:18.893Z,22.37
2017-10-26T06:26:48.370Z,19.73
2017-10-26T06:29:17.261Z,18.33
2017-10-26T06:31:45.948Z,17.90
2017-10-26T06:34:14.639Z,18.00
2017-10-26T06:36:43.528Z,19.23
2017-10-26T06:39:13.041Z,22.40
2017-10-26T06:41:41.722Z,21.13
2017-10-26T06:44:10.610Z,21.67
2017-10-26T06:46:39.498Z,22.50
2017-10-26T06:49:08.390Z,20.00
2017-10-26T06:51:37.076Z,20.20
2017-10-26T06:54:05.865Z,21.70
2017-10-26T06:56:34.551Z,22.20
2017-10-26T06:59:03.441Z,25.80
2017-10-26T07:01:32.132Z,25.43
2017-10-26T07:04:00.814Z,23.67
2017-10-26T07:06:29.602Z,22.70
2017-10-26T07:08:58.289Z,23.30
2017-10-26T07:11:26.975Z,23.90
2017-10-26T07:13:55.765Z,24.70
2017-10-26T07:16:24.451Z,26.37
2017-10-26T07:18:53.136Z,25.40
2017-10-26T07:21:21.773Z,31.83
2017-10-26T07:23:50.367Z,26.37
2017-10-26T07:26:20.015Z,27.87
2017-10-26T07:28:48.916Z,29.93
2017-10-26T07:31:17.800Z,30.83
2017-10-26T07:33:46.690Z,27.10
2017-10-26T07:36:15.585Z,38.43
2017-10-26T07:38:44.471Z,26.50
2017-10-26T07:41:13.362Z,25.30
2017-10-26T07:43:42.045Z,25.07
2017-10-26T07:46:10.938Z,22.57
2017-10-26T07:48:39.630Z,24.57
2017-10-26T07:51:08.515Z,24.70
2017-10-26T07:53:37.204Z,24.67
2017-10-26T07:56:05.886Z,26.30
2017-10-26T07:58:34.734Z,43.07
2017-10-26T08:01:03.470Z,25.63
2017-10-26T08:03:32.968Z,23.90
2017-10-26T08:06:01.860Z,23.83
2017-10-26T08:08:30.546Z,24.20
2017-10-26T08:10:59.182Z,24.50
2017-10-26T08:13:27.804Z,25.00
2017-10-26T08:15:56.605Z,23.60
2017-10-26T08:18:25.497Z,24.00
2017-10-26T08:20:54.391Z,28.90
2017-10-26T08:23:23.282Z,22.23
2017-10-26T08:25:52.172Z,23.87
2017-10-26T08:28:20.963Z,26.80
2017-10-26T08:30:50.568Z,23.90
2017-10-26T08:33:19.252Z,23.40
2017-10-26T08:35:48.150Z,21.93
2017-10-26T08:38:16.933Z,22.80
2017-10-26T08:40:45.823Z,21.00
2017-10-26T08:43:14.714Z,16.80
2017-10-26T08:45:43.400Z,17.40
2017-10-26T08:48:12.293Z,17.43
2017-10-26T08:50:42.002Z,17.30
2017-10-26T08:53:10.895Z,20.50
2017-10-26T08:55:39.733Z,18.33
2017-10-26T08:58:08.676Z,17.70
2017-10-26T09:00:37.567Z,18.73
2017-10-26T09:03:07.277Z,18.53
2017-10-26T09:05:36.173Z,19.10
2017-10-26T09:08:04.881Z,14.43
2017-10-26T09:10:33.852Z,15.40
2017-10-26T09:13:02.748Z,17.40
2017-10-26T09:15:31.996Z,11.87
2017-10-26T09:18:01.648Z,17.30
2017-10-26T09:20:30.552Z,19.97
2017-10-26T09:22:59.439Z,14.70
2017-10-26T09:25:28.425Z,14.77
2017-10-26T09:27:57.323Z,14.27
2017-10-26T09:30:27.026Z,14.33
2017-10-26T09:33:01.443Z,12.73
2017-10-26T09:35:30.336Z,14.60
2017-10-26T09:37:59.012Z,15.67
2017-10-26T09:40:27.809Z,13.00
2017-10-26T09:42:56.806Z,13.13
2017-10-26T09:45:25.698Z,13.80
2017-10-26T09:47:54.594Z,13.87
2017-10-26T09:50:24.295Z,14.00
2017-10-26T09:52:53.189Z,12.47
2017-10-26T09:55:22.081Z,12.37
2017-10-26T09:57:51.072Z,14.40
2017-10-26T10:00:19.965Z,16.63
2017-10-26T10:02:49.676Z,13.47
2017-10-26T10:05:18.581Z,14.03
2017-10-26T10:07:47.864Z,15.60
2017-10-26T10:10:16.823Z,14.97
2017-10-26T10:12:45.855Z,14.33
2017-10-26T10:15:14.754Z,15.60
2017-10-26T10:17:43.742Z,14.37
2017-10-26T10:20:13.452Z,17.33
2017-10-26T10:22:42.345Z,13.80
2017-10-26T10:25:11.229Z,14.53
2017-10-26T10:27:40.124Z,13.17
2017-10-26T10:30:09.215Z,15.00
2017-10-26T10:32:39.747Z,16.17
2017-10-26T10:35:08.635Z,16.03
2017-10-26T10:37:37.528Z,16.53
2017-10-26T10:40:06.419Z,17.73
2017-10-26T10:42:35.312Z,15.53
2017-10-26T10:45:04.202Z,15.43
2017-10-26T10:47:33.089Z,18.50
2017-10-26T10:50:01.982Z,17.77
2017-10-26T10:52:30.874Z,15.20
2017-10-26T10:54:59.764Z,18.03
2017-10-26T10:57:28.655Z,18.13
2017-10-26T11:00:02.992Z,20.87
2017-10-26T11:02:32.155Z,17.53
2017-10-26T11:05:00.901Z,15.80
2017-10-26T11:07:30.157Z,18.20
2017-10-26T11:09:59.459Z,19.23
2017-10-26T11:12:30.893Z,16.60
2017-10-26T11:15:00.144Z,15.93
2017-10-26T11:17:29.326Z,15.67
2017-10-26T11:19:58.265Z,16.63
2017-10-26T11:22:27.557Z,17.07
2017-10-26T11:24:56.653Z,17.97
2017-10-26T11:27:25.698Z,17.97
2017-10-26T11:29:55.158Z,17.27
2017-10-26T11:32:24.092Z,13.00
2017-10-26T11:34:53.140Z,15.70
2017-10-26T11:37:22.384Z,11.57
2017-10-26T11:39:51.078Z,11.00
2017-10-26T11:42:21.135Z,9.60
2017-10-26T11:44:50.233Z,10.93
2017-10-26T11:47:19.810Z,8.60
2017-10-26T11:49:50.318Z,7.73
2017-10-26T11:52:19.877Z,7.83
2017-10-26T11:54:48.623Z,6.30
2017-10-26T11:57:17.416Z,7.70
2017-10-26T11:59:47.090Z,9.10
2017-10-26T12:02:17.094Z,13.33
2017-10-26T12:04:46.224Z,8.43
2017-10-26T12:07:16.073Z,7.13
2017-10-26T12:09:44.920Z,9.60
2017-10-26T12:12:15.665Z,7.20
2017-10-26T12:14:44.511Z,7.70
2017-10-26T12:17:13.446Z,10.83
2017-10-26T12:19:42.340Z,7.63
2017-10-26T12:22:11.225Z,7.50
2017-10-26T12:24:40.122Z,7.47
2017-10-26T12:27:09.827Z,9.10
2017-10-26T12:29:38.618Z,7.80
2017-10-26T12:32:07.509Z,8.03
2017-10-26T12:34:36.399Z,7.20
2017-10-26T12:37:05.288Z,9.33
2017-10-26T12:39:34.999Z,7.83
2017-10-26T12:42:03.899Z,9.67
2017-10-26T12:44:32.881Z,12.90
2017-10-26T12:47:01.669Z,10.70
2017-10-26T12:49:31.450Z,7.80
2017-10-26T12:52:00.271Z,7.43
2017-10-26T12:54:29.366Z,9.63
2017-10-26T12:56:58.468Z,9.97
2017-10-26T12:59:27.581Z,11.07
2017-10-26T13:01:57.237Z,9.43
2017-10-26T13:04:26.521Z,7.50
2017-10-26T13:06:55.480Z,6.83
2017-10-26T13:09:25.393Z,7.70
2017-10-26T13:11:54.948Z,7.00
2017-10-26T13:14:23.729Z,6.60
2017-10-26T13:16:52.648Z,5.83
2017-10-26T13:19:21.508Z,6.00
2017-10-26T13:21:50.291Z,6.27
2017-10-26T13:24:19.155Z,6.30
2017-10-26T13:26:47.979Z,4.80
2017-10-26T13:29:16.676Z,5.30
2017-10-26T13:31:45.556Z,6.67
2017-10-26T13:34:14.523Z,7.70
2017-10-26T13:36:44.045Z,6.17
2017-10-26T13:39:12.831Z,6.17
2017-10-26T13:41:41.680Z,6.63
2017-10-26T13:44:16.406Z,5.27
2017-10-26T13:46:45.307Z,6.03
2017-10-26T13:49:14.803Z,6.90
2017-10-26T13:51:43.849Z,7.47
2017-10-26T13:54:13.095Z,8.20
2017-10-26T13:56:42.002Z,7.77
2017-10-26T13:59:10.881Z,8.50
2017-10-26T14:01:39.879Z,7.90
2017-10-26T14:04:09.586Z,20.17
2017-10-26T14:06:38.472Z,8.17
2017-10-26T14:09:07.267Z,8.23
2017-10-26T14:11:36.152Z,7.10
2017-10-26T14:14:04.845Z,6.65
2017-10-26T14:16:33.737Z,7.80
2017-10-26T14:19:02.388Z,6.40
2017-10-26T14:21:31.307Z,9.43
2017-10-26T14:24:00.096Z,9.60
2017-10-26T14:26:28.782Z,6.93
2017-10-26T14:28:57.674Z,7.47
2017-10-26T14:31:26.573Z,6.30
2017-10-26T14:33:55.458Z,8.00
2017-10-26T14:36:24.206Z,6.63
2017-10-26T14:38:53.032Z,7.40
2017-10-26T14:41:21.923Z,9.07
2017-10-26T14:43:50.814Z,10.47
2017-10-26T14:46:19.707Z,8.80
2017-10-26T14:48:48.392Z,9.70
2017-10-26T14:51:17.022Z,9.20
2017-10-26T14:53:45.866Z,10.33
2017-10-26T14:56:14.554Z,10.30
2017-10-26T14:58:43.291Z,9.80
2017-10-26T15:01:12.951Z,10.30
2017-10-26T15:03:41.738Z,11.27
2017-10-26T15:06:10.630Z,13.50
2017-10-26T15:08:39.567Z,7.00
2017-10-26T15:11:08.306Z,10.90
2017-10-26T15:13:36.996Z,11.80
2017-10-26T15:16:05.885Z,15.23
2017-10-26T15:18:34.673Z,13.17
2017-10-26T15:21:03.367Z,10.33
2017-10-26T15:23:32.254Z,10.53
2017-10-26T15:26:00.941Z,10.93
2017-10-26T15:28:29.829Z,11.13
2017-10-26T15:30:58.724Z,12.20
2017-10-26T15:33:27.413Z,15.10
2017-10-26T15:35:56.202Z,12.40
2017-10-26T15:38:25.197Z,16.30
2017-10-26T15:40:54.084Z,13.50
2017-10-26T15:43:22.999Z,15.07
2017-10-26T15:45:52.064Z,16.10
2017-10-26T15:48:21.468Z,19.33
2017-10-26T15:50:50.275Z,14.73
2017-10-26T15:53:19.046Z,14.07
2017-10-26T15:55:47.875Z,15.43
2017-10-26T15:58:16.624Z,17.00
2017-10-26T16:00:46.259Z,44.60
2017-10-26T16:03:16.827Z,17.83
2017-10-26T16:05:46.240Z,16.77
2017-10-26T16:08:15.362Z,17.20
2017-10-26T16:10:44.056Z,20.90
2017-10-26T16:13:12.709Z,20.07
2017-10-26T16:15:41.385Z,24.27
2017-10-26T16:18:10.105Z,18.30
2017-10-26T16:20:38.737Z,18.60
2017-10-26T16:23:08.097Z,17.37
2017-10-26T16:25:36.780Z,20.80
2017-10-26T16:28:05.678Z,20.40
2017-10-26T16:30:35.384Z,21.77
2017-10-26T16:33:04.692Z,21.90
2017-10-26T16:35:33.573Z,24.17
2017-10-26T16:38:02.363Z,22.37
2017-10-26T16:40:31.461Z,22.57
2017-10-26T16:43:00.253Z,24.10
2017-10-26T16:45:28.939Z,25.13
2017-10-26T16:47:57.618Z,28.23
2017-10-26T16:50:26.512Z,27.00
2017-10-26T16:52:55.404Z,26.50
2017-10-26T16:55:24.086Z,28.90
2017-10-26T16:57:52.935Z,30.37
2017-10-26T17:00:22.015Z,16.70
2017-10-26T17:02:56.911Z,19.27
2017-10-26T17:05:27.201Z,17.67
2017-10-26T17:08:03.227Z,16.30
2017-10-26T17:10:32.680Z,17.20
2017-10-26T17:13:01.996Z,19.60
2017-10-26T17:15:31.093Z,16.40
2017-10-26T17:18:00.095Z,18.57
2017-10-26T17:20:28.976Z,20.47
2017-10-26T17:22:57.887Z,20.17
2017-10-26T17:25:26.681Z,20.53
2017-10-26T17:27:56.981Z,20.43
2017-10-26T17:30:26.088Z,22.50
2017-10-26T17:32:54.961Z,20.77
2017-10-26T17:35:23.863Z,22.77
2017-10-26T17:37:52.753Z,22.97
2017-10-26T17:40:21.566Z,23.40
2017-10-26T17:42:50.530Z,22.20
2017-10-26T17:45:19.626Z,20.93
2017-10-26T17:47:48.589Z,23.13
2017-10-26T17:50:17.508Z,22.83
2017-10-26T17:52:46.347Z,25.97
2017-10-26T17:55:16.112Z,25.77
2017-10-26T17:57:45.022Z,23.07
2017-10-26T18:00:14.714Z,22.60
2017-10-26T18:02:43.605Z,28.53
2017-10-26T18:05:13.311Z,27.03
2017-10-26T18:07:42.201Z,29.20
2017-10-26T18:10:11.504Z,22.93
2017-10-26T18:12:40.597Z,21.83
2017-10-26T18:15:09.493Z,25.10
2017-10-26T18:17:38.394Z,26.27
2017-10-26T18:20:07.681Z,26.73
2017-10-26T18:22:36.430Z,26.30
2017-10-26T18:25:06.059Z,26.63
2017-10-26T18:27:35.763Z,24.40
2017-10-26T18:30:05.679Z,27.95
2017-10-26T18:32:35.792Z,27.67
2017-10-26T18:35:04.689Z,26.60
2017-10-26T18:37:34.598Z,27.57
2017-10-26T18:40:04.308Z,26.53
2017-10-26T18:42:33.116Z,28.57
2017-10-26T18:45:02.370Z,32.93
2017-10-26T18:47:31.388Z,27.85
2017-10-26T18:50:00.591Z,27.83
2017-10-26T18:52:30.687Z,26.33
2017-10-26T18:54:59.584Z,29.60
2017-10-26T18:57:28.490Z,29.17
2017-10-26T18:59:57.585Z,30.13
2017-10-26T19:02:26.868Z,34.20
2017-10-26T19:04:55.851Z,29.60
2017-10-26T19:07:24.972Z,29.73
2017-10-26T19:09:54.008Z,32.07
2017-10-26T19:12:24.054Z,31.23
2017-10-26T19:14:53.149Z,28.70
2017-10-26T19:17:21.871Z,33.20
2017-10-26T19:19:51.501Z,34.07
2017-10-26T19:22:21.910Z,34.33
2017-10-26T19:24:50.596Z,32.90
2017-10-26T19:27:19.485Z,34.27
2017-10-26T19:29:48.524Z,35.00
2017-10-26T19:32:17.270Z,33.43
2017-10-26T19:34:45.980Z,33.93
2017-10-26T19:37:14.844Z,33.70
2017-10-26T19:39:43.538Z,32.33
2017-10-26T19:42:12.216Z,36.00
2017-10-26T19:44:40.950Z,40.60
2017-10-26T19:47:09.796Z,36.43
2017-10-26T19:49:38.586Z,37.00
2017-10-26T19:52:07.269Z,36.60
2017-10-26T19:54:36.160Z,37.10
2017-10-26T19:57:04.846Z,34.67
2017-10-26T19:59:33.739Z,36.57
2017-10-26T20:02:02.486Z,33.17
2017-10-26T20:04:31.214Z,33.37
2017-10-26T20:07:00.016Z,34.73
2017-10-26T20:09:28.893Z,34.50
2017-10-26T20:11:57.578Z,35.63
2017-10-26T20:14:26.263Z,38.30
2017-10-26T20:16:55.318Z,39.87
2017-10-26T20:19:24.189Z,41.07
2017-10-26T20:21:53.145Z,39.70
2017-10-26T20:24:21.830Z,40.47
2017-10-26T20:26:50.925Z,40.93
2017-10-26T20:29:19.816Z,38.87
2017-10-26T20:31:48.501Z,39.00
2017-10-26T20:34:17.189Z,35.77
2017-10-26T20:36:45.875Z,37.93
2017-10-26T20:39:14.497Z,33.50
2017-10-26T20:41:43.258Z,31.87
2017-10-26T20:44:12.147Z,25.67
2017-10-26T20:46:40.826Z,38.23
2017-10-26T20:49:15.244Z,28.73
2017-10-26T20:51:49.668Z,28.03
2017-10-26T20:54:24.090Z,32.20
2017-10-26T20:56:59.783Z,30.30
2017-10-26T20:59:34.259Z,32.03
2017-10-26T21:02:08.425Z,31.33
2017-10-26T21:04:42.997Z,32.83
2017-10-26T21:07:18.135Z,31.90
2017-10-26T21:09:46.928Z,31.47
2017-10-26T21:12:21.040Z,28.47
2017-10-26T21:14:49.933Z,30.33
2017-10-26T21:17:18.616Z,31.50
2017-10-26T21:19:47.302Z,31.60
2017-10-26T21:22:15.990Z,30.60
2017-10-26T21:24:44.637Z,30.77
2017-10-26T21:27:13.772Z,31.50
2017-10-26T21:29:43.483Z,30.27
2017-10-26T21:32:12.203Z,33.67
2017-10-26T21:34:41.057Z,29.93
2017-10-26T21:37:09.949Z,31.10
2017-10-26T21:39:38.632Z,30.90
2017-10-26T21:42:07.321Z,30.80
2017-10-26T21:44:36.006Z,32.20
2017-10-26T21:47:04.897Z,34.27
2017-10-26T21:49:33.788Z,32.67
2017-10-26T21:52:02.681Z,29.63
2017-10-26T21:54:31.545Z,30.63
2017-10-26T21:59:55.590Z,33.17
2017-10-26T22:02:25.050Z,33.20
2017-10-26T22:04:53.970Z,31.13
2017-10-26T22:07:23.865Z,32.90
2017-10-26T22:09:52.781Z,30.30
2017-10-26T22:12:21.661Z,29.03
2017-10-26T22:14:50.555Z,29.90
2017-10-26T22:17:19.443Z,34.37
2017-10-26T22:19:48.441Z,28.63
2017-10-26T22:22:17.331Z,28.93
2017-10-26T22:24:46.222Z,28.30
2017-10-26T22:27:15.007Z,29.90
2017-10-26T22:29:43.895Z,34.00
2017-10-26T22:32:12.588Z,32.40
2017-10-26T22:34:41.271Z,37.73
2017-10-26T22:37:10.148Z,36.73
2017-10-26T22:39:39.115Z,36.20
2017-10-26T22:42:08.557Z,38.27
2017-10-26T22:44:37.656Z,37.33
2017-10-26T22:47:06.545Z,38.87
2017-10-26T22:49:35.689Z,36.80
2017-10-26T22:52:05.763Z,37.50
2017-10-26T22:54:35.168Z,36.00
2017-10-26T22:57:04.750Z,38.30
2017-10-26T22:59:33.574Z,34.97
2017-10-26T23:02:02.669Z,32.90
2017-10-26T23:04:31.435Z,30.80
2017-10-26T23:07:00.236Z,25.37
2017-10-26T23:09:28.918Z,28.97
2017-10-26T23:11:57.766Z,29.40
2017-10-26T23:14:27.317Z,28.97
2017-10-26T23:16:57.849Z,27.80
2017-10-26T23:19:26.533Z,27.77
2017-10-26T23:21:55.430Z,27.37
2017-10-26T23:24:25.241Z,28.10
2017-10-26T23:26:54.982Z,29.00
2017-10-26T23:29:24.759Z,27.63
2017-10-26T23:31:53.653Z,28.40
2017-10-26T23:34:22.507Z,27.73
2017-10-26T23:36:51.433Z,27.77
2017-10-26T23:39:20.264Z,25.83
2017-10-26T23:41:49.267Z,27.93
2017-10-26T23:44:19.238Z,27.03
2017-10-26T23:46:48.289Z,26.13
2017-10-26T23:49:17.613Z,26.30
2017-10-26T23:51:46.420Z,27.57
2017-10-26T23:54:15.323Z,26.20
2017-10-26T23:56:45.609Z,26.77
2017-10-26T23:59:35.227Z,27.77
